首页
METAR-TAF:

METAR-TAF

机场 :

都柏林机场

都柏林, 爱尔兰

纬度: 53-26N, 经度: 006-15W, 海拔: 68米

当前天气观测

该预报发布于14分钟前的05:00 UTC
风速8节,风向西南,在西转西南之间变化
温度 7°C
湿度 81%
气压 1015 hPa
能见度10公里或以上
少量云层高于1400英尺
阴天层高于2000英尺

METAR: EIDW 250500Z 22008KT 170V250 9999 FEW014 OVC020 07/04 Q1015 NOSIG

时间: 05:14 (05:14 UTC)

预报

该预报发布于6小时和14分钟前的23:00 UTC
预报有效从25日的 00点(UTC)到 25日的 24点(UTC)
风速6节,风向西南
能见度10公里或以上
多云层高于1200英尺
短暂存在
从 25日的 00点(UTC)到 25日的 12点(UTC)
多云层高于800英尺
几率 30%
从 25日的 00点(UTC)到 25日的 03点(UTC)
多云层高于500英尺
几率 40% :
短暂存在
从 25日的 00点(UTC)到 25日的 09点(UTC)
能見度: 4000
小毛毛雨
成为
从 25日的 06点(UTC)到 25日的 08点(UTC)
风速10节,风向南转西南
成为
从 25日的 17点(UTC)到 25日的 19点(UTC)
风速8节,风向
散云层高于2000英尺
多云层高于3000英尺

TAF: EIDW 242300Z 2500/2524 23006KT 9999 BKN012 TEMPO 2500/2512 BKN008 PROB30 2500/2503 BKN005 PROB40 TEMPO 2500/2509 4000 -DZ BECMG 2506/2508 20010KT BECMG 2517/2519 18008KT SCT020 BKN030

超过4000个机场的气象观测和天气预报(METAR&TAF报告)。

可查询的气象台以黄色和红色小点在地图上表示。

将鼠标移到小点上方,可查看气象台名称。

然后点击查看天气观测和预报。

如需切换地图:点击带黑十字的绿色按钮放大地图;点击带横线的绿色按钮缩小地图;或者点击绿色箭头查看邻近地区的地图。


METAR-TAF: